Time;durP1;ratioP1;P1;durP2;ratioP2;P2;SDS_P1;SDS_P2;PMS_P1;PMS_P2;Temp;Humidity;BMP_temperature;BMP_pressure;BME280_temperature;BME280_humidity;BME280_pressure;Samples;Min_cycle;Max_cycle;Signal;HPM_P1;HPM_P2
2021/11/05 00:00:05;;;;;;;12.45;1.80;;;11.80;99.90;;;;;;5086130;28;20416;-72
2021/11/05 00:02:37;;;;;;;8.77;1.85;;;11.80;99.90;;;;;;5102406;28;20403;-72
2021/11/05 00:05:04;;;;;;;12.00;2.33;;;11.80;99.90;;;;;;5104964;28;20392;-72
2021/11/05 00:07:30;;;;;;;14.75;2.13;;;11.80;99.90;;;;;;5097588;28;20420;-73
2021/11/05 00:09:55;;;;;;;11.27;2.30;;;11.70;99.90;;;;;;5080400;28;20421;-72
2021/11/05 00:12:21;;;;;;;16.30;2.50;;;11.70;99.90;;;;;;5099678;28;20494;-72
2021/11/05 00:14:47;;;;;;;13.50;2.63;;;11.70;99.90;;;;;;5104944;28;20427;-72
2021/11/05 00:17:12;;;;;;;15.35;2.60;;;11.60;99.90;;;;;;5083210;28;20510;-72
2021/11/05 00:19:38;;;;;;;16.40;2.90;;;11.60;99.90;;;;;;5079344;28;20491;-74
2021/11/05 00:22:05;;;;;;;16.42;3.08;;;11.60;99.90;;;;;;5103078;28;20461;-72
2021/11/05 00:24:31;;;;;;;15.83;2.90;;;11.60;99.90;;;;;;5102187;28;20415;-73
2021/11/05 00:26:56;;;;;;;13.40;2.90;;;11.60;99.90;;;;;;5105671;28;20882;-72
2021/11/05 00:29:22;;;;;;;15.93;3.03;;;11.60;99.90;;;;;;5104641;28;20404;-72
2021/11/05 00:31:48;;;;;;;15.15;2.97;;;11.60;99.90;;;;;;5104008;28;20883;-74
2021/11/05 00:34:17;;;;;;;16.43;3.20;;;11.60;99.90;;;;;;5087416;28;20407;-73
2021/11/05 00:36:44;;;;;;;14.50;2.97;;;11.60;99.90;;;;;;5105515;28;20420;-72
2021/11/05 00:39:10;;;;;;;17.23;3.22;;;11.60;99.90;;;;;;5104117;28;20494;-72
2021/11/05 00:41:35;;;;;;;13.57;3.00;;;11.50;99.90;;;;;;5068775;28;20504;-73
2021/11/05 00:44:01;;;;;;;16.67;3.40;;;11.60;99.90;;;;;;5080952;28;20425;-71
2021/11/05 00:46:27;;;;;;;15.03;2.90;;;11.60;99.90;;;;;;5078313;28;20408;-72
2021/11/05 00:48:52;;;;;;;16.23;3.10;;;11.60;99.90;;;;;;5100574;28;20449;-72
2021/11/05 00:51:18;;;;;;;12.82;3.00;;;11.60;99.90;;;;;;5094722;28;20404;-71
2021/11/05 00:53:44;;;;;;;13.83;3.03;;;11.60;99.90;;;;;;5102717;28;20420;-72
2021/11/05 00:56:09;;;;;;;17.88;3.53;;;11.70;99.90;;;;;;5081051;28;20396;-72
2021/11/05 00:58:35;;;;;;;15.13;2.83;;;11.70;99.90;;;;;;5083067;28;20408;-72
2021/11/05 01:01:00;;;;;;;18.77;2.70;;;11.70;99.90;;;;;;5100702;28;20410;-74
2021/11/05 01:03:26;;;;;;;15.55;2.88;;;11.70;99.90;;;;;;5098721;28;20406;-71
2021/11/05 01:05:52;;;;;;;14.60;3.43;;;11.70;99.90;;;;;;5085291;28;20427;-71
2021/11/05 01:08:17;;;;;;;12.70;2.50;;;11.70;99.90;;;;;;5100302;28;20417;-73
2021/11/05 01:10:43;;;;;;;11.85;2.80;;;11.70;99.90;;;;;;5079701;28;20441;-72
2021/11/05 01:13:09;;;;;;;15.93;2.57;;;11.60;99.90;;;;;;5098942;28;22049;-73
2021/11/05 01:15:35;;;;;;;13.70;3.25;;;11.60;99.90;;;;;;5101071;28;20892;-73
2021/11/05 01:18:01;;;;;;;16.37;4.50;;;11.60;99.90;;;;;;5101072;28;20427;-73
2021/11/05 01:20:27;;;;;;;12.30;3.87;;;11.50;99.90;;;;;;5101602;28;20408;-72
2021/11/05 01:22:52;;;;;;;18.15;4.88;;;11.50;99.90;;;;;;5101554;28;20406;-73
2021/11/05 01:25:18;;;;;;;17.13;4.53;;;11.40;99.90;;;;;;5102461;28;20412;-73
2021/11/05 01:27:46;;;;;;;15.48;4.00;;;11.40;99.90;;;;;;5103632;28;20823;-73
2021/11/05 01:30:14;;;;;;;17.10;3.30;;;11.30;99.90;;;;;;5083426;28;20908;-72
2021/11/05 01:32:40;;;;;;;20.85;3.20;;;11.30;99.90;;;;;;5084766;28;20435;-72
2021/11/05 01:35:07;;;;;;;11.82;2.97;;;11.30;99.90;;;;;;5103495;28;20422;-73
2021/11/05 01:37:32;;;;;;;16.95;3.50;;;11.30;99.90;;;;;;5102754;28;20424;-71
2021/11/05 01:39:59;;;;;;;14.15;3.40;;;11.20;99.90;;;;;;5100655;28;20425;-73
2021/11/05 01:42:25;;;;;;;14.65;3.65;;;11.20;99.90;;;;;;5101835;28;20465;-72
2021/11/05 01:44:51;;;;;;;15.20;3.40;;;11.20;99.90;;;;;;5085470;28;20416;-73
2021/11/05 01:47:20;;;;;;;13.98;3.55;;;11.20;99.90;;;;;;5101639;28;20431;-72
2021/11/05 01:49:47;;;;;;;12.20;3.35;;;11.20;99.90;;;;;;5074153;28;20417;-73
2021/11/05 01:52:14;;;;;;;10.70;2.95;;;11.10;99.90;;;;;;5083380;28;20411;-73
2021/11/05 01:54:41;;;;;;;11.23;3.10;;;11.00;99.90;;;;;;5103148;28;20410;-72
2021/11/05 01:57:07;;;;;;;11.05;3.28;;;11.00;99.90;;;;;;5085810;28;20408;-72
2021/11/05 01:59:35;;;;;;;15.95;4.22;;;11.00;99.90;;;;;;5102113;28;20439;-74
2021/11/05 02:02:03;;;;;;;19.35;4.10;;;10.90;99.90;;;;;;5102133;28;20411;-73
2021/11/05 02:04:29;;;;;;;15.13;4.00;;;10.90;99.90;;;;;;5075952;28;20957;-72
2021/11/05 02:06:56;;;;;;;19.25;3.65;;;10.80;99.90;;;;;;5083247;28;20544;-72
2021/11/05 02:09:25;;;;;;;14.73;3.50;;;10.80;99.90;;;;;;5097886;28;20911;-73
2021/11/05 02:11:54;;;;;;;14.43;3.28;;;10.90;99.90;;;;;;5082867;28;20916;-73
2021/11/05 02:14:23;;;;;;;13.88;3.00;;;10.90;99.90;;;;;;5084469;28;20490;-73
2021/11/05 02:16:52;;;;;;;14.35;3.20;;;10.90;99.90;;;;;;5078990;28;20406;-73
2021/11/05 02:19:21;;;;;;;15.77;2.70;;;10.90;99.90;;;;;;5102172;28;20423;-73
2021/11/05 02:21:50;;;;;;;11.70;2.90;;;10.90;99.90;;;;;;5102152;28;20408;-73
2021/11/05 02:24:17;;;;;;;11.55;2.90;;;10.80;99.90;;;;;;5095926;28;20415;-74
2021/11/05 02:26:45;;;;;;;14.45;3.65;;;10.80;99.90;;;;;;5084578;28;20412;-72
2021/11/05 02:29:12;;;;;;;15.68;3.30;;;10.80;99.90;;;;;;5098569;28;20431;-72
2021/11/05 02:31:38;;;;;;;16.40;3.05;;;10.70;99.90;;;;;;5102212;28;21060;-73
2021/11/05 02:34:04;;;;;;;11.85;3.20;;;10.70;99.90;;;;;;5102890;28;20456;-73
2021/11/05 02:36:30;;;;;;;10.90;2.70;;;10.70;99.90;;;;;;5096758;28;20416;-75
2021/11/05 02:38:56;;;;;;;10.07;2.30;;;10.70;99.90;;;;;;5101912;28;21357;-74
2021/11/05 02:41:22;;;;;;;11.20;2.20;;;10.60;99.90;;;;;;5087158;28;20408;-74
2021/11/05 02:43:49;;;;;;;10.63;2.17;;;10.60;99.90;;;;;;5105746;28;20974;-72
2021/11/05 02:46:15;;;;;;;12.18;1.60;;;10.70;99.90;;;;;;5088831;28;20408;-73
2021/11/05 02:48:41;;;;;;;9.50;1.40;;;10.70;99.90;;;;;;5104015;28;20995;-71
2021/11/05 02:51:08;;;;;;;13.80;1.80;;;10.70;99.90;;;;;;5103609;28;20443;-72
2021/11/05 02:53:35;;;;;;;12.17;1.47;;;10.70;99.90;;;;;;5103357;28;20428;-72
2021/11/05 02:56:01;;;;;;;10.68;1.75;;;10.80;99.90;;;;;;5106173;28;20842;-72
2021/11/05 02:58:26;;;;;;;11.27;1.67;;;10.70;99.90;;;;;;5088638;28;20490;-73
2021/11/05 03:00:53;;;;;;;11.98;1.77;;;10.70;99.90;;;;;;5106436;28;20478;-72
2021/11/05 03:03:19;;;;;;;9.68;1.45;;;10.70;99.90;;;;;;5087162;28;20408;-73
2021/11/05 03:05:44;;;;;;;13.60;1.70;;;10.80;99.90;;;;;;5106885;28;20909;-73
2021/11/05 03:08:10;;;;;;;10.05;1.35;;;10.80;99.90;;;;;;5105789;28;20421;-72
2021/11/05 03:10:36;;;;;;;8.13;1.30;;;10.80;99.90;;;;;;5080925;28;20426;-72
2021/11/05 03:13:03;;;;;;;17.07;1.90;;;10.80;99.90;;;;;;5102731;28;20814;-72
2021/11/05 03:15:30;;;;;;;11.35;1.30;;;10.80;99.90;;;;;;5105341;28;20431;-72
2021/11/05 03:17:59;;;;;;;17.30;1.95;;;10.80;99.90;;;;;;5107593;28;20431;-74
2021/11/05 03:20:25;;;;;;;12.50;1.42;;;10.80;99.90;;;;;;5086616;28;20506;-73
2021/11/05 03:22:51;;;;;;;12.57;1.80;;;10.80;99.90;;;;;;5102795;28;20420;-72
2021/11/05 03:25:17;;;;;;;10.02;1.60;;;10.80;99.90;;;;;;5103144;28;20476;-73
2021/11/05 03:27:43;;;;;;;12.50;1.70;;;10.70;99.90;;;;;;5086193;28;20410;-72
2021/11/05 03:30:10;;;;;;;10.10;1.48;;;10.70;99.90;;;;;;5103647;28;20510;-74
2021/11/05 03:32:38;;;;;;;16.00;2.25;;;10.60;99.90;;;;;;5081756;28;20838;-73
2021/11/05 03:35:05;;;;;;;17.30;1.63;;;10.70;99.90;;;;;;5079905;28;20457;-73
2021/11/05 03:37:31;;;;;;;11.27;1.80;;;10.70;99.90;;;;;;5083099;28;20421;-73
2021/11/05 03:39:57;;;;;;;13.48;1.73;;;10.60;99.90;;;;;;5071522;28;20419;-72
2021/11/05 03:42:22;;;;;;;13.70;1.75;;;10.60;99.90;;;;;;5078185;28;20422;-72
2021/11/05 03:44:48;;;;;;;15.63;1.70;;;10.60;99.90;;;;;;5078679;28;20918;-73
2021/11/05 03:47:14;;;;;;;16.63;1.67;;;10.60;99.90;;;;;;5079658;28;20437;-72
2021/11/05 03:49:39;;;;;;;11.30;1.80;;;10.60;99.90;;;;;;5070820;28;20465;-73
2021/11/05 03:52:05;;;;;;;13.83;1.73;;;10.60;99.90;;;;;;5078407;28;20894;-73
2021/11/05 03:54:31;;;;;;;12.70;2.05;;;10.60;99.90;;;;;;5078058;28;20417;-73
2021/11/05 03:56:57;;;;;;;14.87;1.90;;;10.60;99.90;;;;;;5078426;28;20505;-72
2021/11/05 03:59:22;;;;;;;13.55;1.70;;;10.60;99.90;;;;;;5079913;28;20410;-73
2021/11/05 04:01:48;;;;;;;14.03;2.00;;;10.50;99.90;;;;;;5081366;28;21006;-72
2021/11/05 04:04:14;;;;;;;14.52;1.80;;;10.50;99.90;;;;;;5084074;28;20412;-73
2021/11/05 04:06:40;;;;;;;12.57;1.63;;;10.50;99.90;;;;;;5083008;28;20401;-71
2021/11/05 04:09:06;;;;;;;8.35;1.80;;;10.40;99.90;;;;;;5078543;28;20410;-72
2021/11/05 04:11:32;;;;;;;9.17;1.93;;;10.40;99.90;;;;;;5070041;28;20415;-73
2021/11/05 04:13:58;;;;;;;13.15;2.17;;;10.40;99.90;;;;;;5074797;28;20421;-73
2021/11/05 04:16:24;;;;;;;11.80;1.80;;;10.40;99.90;;;;;;5081347;28;20413;-74
2021/11/05 04:18:49;;;;;;;12.32;2.10;;;10.30;99.90;;;;;;5079345;28;20929;-73
2021/11/05 04:21:15;;;;;;;15.60;1.97;;;10.30;99.90;;;;;;5083465;28;20406;-73
2021/11/05 04:23:42;;;;;;;17.60;2.35;;;10.30;99.90;;;;;;5082227;28;20406;-73
2021/11/05 04:26:08;;;;;;;12.63;2.40;;;10.30;99.90;;;;;;5079158;28;20520;-72
2021/11/05 04:28:34;;;;;;;17.88;4.25;;;10.20;99.90;;;;;;5084263;28;20416;-72
2021/11/05 04:31:01;;;;;;;15.82;5.03;;;10.20;99.90;;;;;;5081920;28;20419;-73
2021/11/05 04:33:30;;;;;;;16.47;4.40;;;10.20;99.90;;;;;;5075763;28;20492;-72
2021/11/05 04:35:56;;;;;;;12.00;4.30;;;10.20;99.90;;;;;;5065558;28;20502;-75
2021/11/05 04:38:22;;;;;;;12.97;3.87;;;10.20;99.90;;;;;;5097201;28;20424;-72
2021/11/05 04:40:47;;;;;;;10.53;3.30;;;10.20;99.90;;;;;;5100875;28;20695;-70
2021/11/05 04:43:13;;;;;;;11.07;3.30;;;10.20;99.90;;;;;;5095658;28;20413;-72
2021/11/05 04:45:39;;;;;;;10.23;2.70;;;10.10;99.90;;;;;;5103256;28;20404;-72
2021/11/05 04:48:05;;;;;;;13.82;2.33;;;10.10;99.90;;;;;;5082304;28;20879;-73
2021/11/05 04:50:30;;;;;;;12.80;2.60;;;10.10;99.90;;;;;;5100129;28;20888;-73
2021/11/05 04:52:57;;;;;;;12.15;2.90;;;10.10;99.90;;;;;;5082660;28;20392;-72
2021/11/05 04:55:22;;;;;;;17.10;3.95;;;10.10;99.90;;;;;;5097717;28;20487;-73
2021/11/05 04:57:49;;;;;;;17.42;3.90;;;10.00;99.90;;;;;;5102526;28;20512;-74
2021/11/05 05:00:17;;;;;;;12.25;3.20;;;10.00;99.90;;;;;;5097773;28;20471;-71
2021/11/05 05:02:43;;;;;;;12.00;2.80;;;10.00;99.90;;;;;;5083735;28;20422;-71
2021/11/05 05:05:09;;;;;;;9.57;2.50;;;10.00;99.90;;;;;;5100440;28;21222;-71
2021/11/05 05:07:35;;;;;;;8.43;2.20;;;10.00;99.90;;;;;;5073878;28;20409;-73
2021/11/05 05:10:01;;;;;;;9.13;2.00;;;10.00;99.90;;;;;;5093592;28;20773;-71
2021/11/05 05:12:26;;;;;;;16.50;2.80;;;10.00;99.90;;;;;;5101565;28;20491;-70
2021/11/05 05:14:52;;;;;;;12.90;2.90;;;10.00;99.90;;;;;;5103748;28;20916;-71
2021/11/05 05:17:18;;;;;;;15.13;3.55;;;10.00;99.90;;;;;;5084921;28;20419;-71
2021/11/05 05:19:43;;;;;;;14.68;2.42;;;10.10;99.90;;;;;;5084811;28;20420;-71
2021/11/05 05:22:09;;;;;;;14.23;2.33;;;10.10;99.90;;;;;;5101202;28;20404;-72
2021/11/05 05:24:36;;;;;;;12.97;1.97;;;10.10;99.90;;;;;;5085300;28;20421;-72
2021/11/05 05:27:02;;;;;;;13.95;2.20;;;10.20;99.90;;;;;;5077970;28;21289;-73
2021/11/05 05:29:28;;;;;;;14.68;2.30;;;10.20;99.90;;;;;;5102512;28;20408;-72
2021/11/05 05:31:54;;;;;;;16.30;2.40;;;10.20;99.90;;;;;;5098194;28;20420;-73
2021/11/05 05:34:19;;;;;;;14.50;2.17;;;10.20;99.90;;;;;;5102771;28;20444;-71
2021/11/05 05:36:45;;;;;;;15.00;2.00;;;10.20;99.90;;;;;;5095104;28;20409;-73
2021/11/05 05:39:11;;;;;;;12.52;2.15;;;10.30;99.90;;;;;;5078926;28;20502;-71
2021/11/05 05:41:37;;;;;;;15.90;2.00;;;10.30;99.90;;;;;;5082301;28;20412;-71
2021/11/05 05:44:04;;;;;;;12.52;3.15;;;10.30;99.90;;;;;;5100160;28;20552;-72
2021/11/05 05:46:29;;;;;;;15.80;3.45;;;10.30;99.90;;;;;;5101281;28;20860;-71
2021/11/05 05:48:55;;;;;;;18.63;6.07;;;10.20;99.90;;;;;;5071671;28;20532;-72
2021/11/05 05:51:21;;;;;;;14.43;3.90;;;10.20;99.90;;;;;;5099539;28;20754;-71
2021/11/05 05:53:46;;;;;;;13.60;2.90;;;10.20;99.90;;;;;;5102030;28;20408;-73
2021/11/05 05:56:13;;;;;;;14.55;3.33;;;10.20;99.90;;;;;;5084890;28;20424;-73
2021/11/05 05:58:39;;;;;;;23.80;8.55;;;10.20;99.90;;;;;;5101270;28;21091;-71
2021/11/05 06:01:05;;;;;;;31.60;14.20;;;10.20;99.90;;;;;;5077272;28;20408;-73
2021/11/05 06:03:30;;;;;;;18.58;6.28;;;10.20;99.90;;;;;;5095037;28;20427;-72
2021/11/05 06:05:56;;;;;;;10.90;2.93;;;10.20;99.90;;;;;;5085617;28;20962;-72
2021/11/05 06:08:22;;;;;;;15.57;2.78;;;10.30;99.90;;;;;;5099249;28;20400;-73
2021/11/05 06:10:48;;;;;;;28.30;11.63;;;10.30;99.90;;;;;;5080556;28;20932;-71
2021/11/05 06:13:13;;;;;;;18.90;5.40;;;10.30;99.90;;;;;;5103150;28;20392;-72
2021/11/05 06:15:39;;;;;;;15.55;3.65;;;10.30;99.90;;;;;;5099525;28;20817;-71
2021/11/05 06:18:05;;;;;;;17.38;3.72;;;10.30;99.90;;;;;;5101623;28;20456;-73
2021/11/05 06:20:31;;;;;;;14.80;3.42;;;10.20;99.90;;;;;;5106040;27;20407;-72
2021/11/05 06:22:57;;;;;;;14.03;3.70;;;10.20;99.90;;;;;;5096163;28;20506;-74
2021/11/05 06:25:22;;;;;;;15.05;3.58;;;10.20;99.90;;;;;;5070529;28;20784;-74
2021/11/05 06:27:48;;;;;;;15.47;3.20;;;10.20;99.90;;;;;;5087152;28;20412;-72
2021/11/05 06:30:14;;;;;;;12.77;3.30;;;10.20;99.90;;;;;;5107338;28;20399;-72
2021/11/05 06:32:41;;;;;;;12.65;3.40;;;10.20;99.90;;;;;;5086154;28;20403;-73
2021/11/05 06:35:09;;;;;;;17.25;3.95;;;10.20;99.90;;;;;;5096129;28;20419;-70
2021/11/05 06:37:37;;;;;;;11.13;3.25;;;10.20;99.90;;;;;;5088615;28;20440;-73
2021/11/05 06:40:07;;;;;;;14.37;4.70;;;10.20;99.90;;;;;;5105511;28;20464;-73
2021/11/05 06:42:33;;;;;;;18.08;3.50;;;10.20;99.90;;;;;;5080469;28;20400;-73
2021/11/05 06:44:59;;;;;;;17.67;5.63;;;10.20;99.90;;;;;;5074619;28;20915;-71
2021/11/05 06:47:25;;;;;;;15.95;5.07;;;10.20;99.90;;;;;;5106268;28;20448;-72
2021/11/05 06:49:50;;;;;;;15.27;5.10;;;10.20;99.90;;;;;;5103245;28;20443;-73
2021/11/05 06:52:16;;;;;;;19.48;4.78;;;10.20;99.90;;;;;;5101750;28;20973;-72
2021/11/05 06:54:42;;;;;;;16.73;4.93;;;10.20;99.90;;;;;;5101312;28;20489;-70
2021/11/05 06:57:08;;;;;;;18.60;4.60;;;10.20;99.90;;;;;;5100618;28;20416;-71
2021/11/05 06:59:35;;;;;;;20.58;5.28;;;10.20;99.90;;;;;;5087309;28;20426;-72
2021/11/05 07:02:04;;;;;;;42.45;19.40;;;10.20;99.90;;;;;;5105404;28;20422;-73
2021/11/05 07:04:30;;;;;;;50.63;23.83;;;10.30;99.90;;;;;;5081619;28;20408;-71
2021/11/05 07:06:56;;;;;;;31.63;11.88;;;10.30;99.90;;;;;;5095961;28;20414;-72
2021/11/05 07:09:22;;;;;;;18.88;5.80;;;10.20;99.90;;;;;;5096537;28;20476;-71
2021/11/05 07:11:49;;;;;;;15.13;5.60;;;10.20;99.90;;;;;;5095139;28;20449;-72
2021/11/05 07:14:15;;;;;;;19.73;6.35;;;10.20;99.90;;;;;;5103119;28;20416;-72
2021/11/05 07:16:41;;;;;;;21.02;6.03;;;10.30;99.90;;;;;;5105816;28;20415;-70
2021/11/05 07:19:07;;;;;;;15.18;4.97;;;10.20;99.90;;;;;;5100778;28;20473;-72
2021/11/05 07:21:34;;;;;;;19.23;5.30;;;10.20;99.90;;;;;;5100142;28;20994;-73
2021/11/05 07:24:01;;;;;;;17.75;5.93;;;10.20;99.90;;;;;;5100011;28;20431;-73
2021/11/05 07:26:34;;;;;;;14.35;4.80;;;10.30;99.90;;;;;;5099445;28;20490;-72
2021/11/05 07:29:02;;;;;;;15.48;4.43;;;10.30;99.90;;;;;;5102906;28;20425;-73
2021/11/05 07:31:28;;;;;;;13.93;3.60;;;10.30;99.90;;;;;;5104572;28;20415;-72
2021/11/05 07:33:53;;;;;;;14.65;3.55;;;10.40;99.90;;;;;;5104152;28;20418;-74
2021/11/05 07:36:19;;;;;;;13.75;3.50;;;10.60;99.90;;;;;;5105155;28;20411;-71
2021/11/05 07:38:44;;;;;;;17.67;3.65;;;10.80;99.90;;;;;;5099890;28;20420;-72
2021/11/05 07:41:11;;;;;;;14.60;3.20;;;10.90;99.90;;;;;;5105114;28;20424;-73
2021/11/05 07:43:37;;;;;;;10.13;2.60;;;11.10;99.90;;;;;;5104012;28;20427;-74
2021/11/05 07:46:03;;;;;;;14.70;2.40;;;11.40;99.90;;;;;;5102911;28;20438;-74
2021/11/05 07:48:29;;;;;;;14.35;2.60;;;11.70;99.90;;;;;;5102818;28;20438;-72
2021/11/05 07:50:54;;;;;;;11.10;2.28;;;11.80;99.90;;;;;;5084617;28;20413;-72
2021/11/05 07:53:20;;;;;;;8.20;2.27;;;11.80;99.90;;;;;;5081175;28;20453;-70
2021/11/05 07:55:46;;;;;;;13.03;2.80;;;11.70;99.90;;;;;;5102567;28;21007;-70
2021/11/05 07:58:12;;;;;;;11.52;2.80;;;11.70;99.90;;;;;;5096958;28;20399;-74
2021/11/05 08:00:38;;;;;;;10.10;2.57;;;11.70;99.90;;;;;;5102850;28;20419;-73
2021/11/05 08:03:04;;;;;;;13.02;2.90;;;11.90;99.90;;;;;;5107135;28;20903;-72
2021/11/05 08:05:29;;;;;;;16.87;4.80;;;12.30;99.90;;;;;;5105319;28;20509;-71
2021/11/05 08:07:55;;;;;;;12.52;3.30;;;12.90;99.90;;;;;;5102298;28;20404;-72
2021/11/05 08:10:21;;;;;;;13.70;2.87;;;13.40;99.90;;;;;;5087896;28;20892;-76
2021/11/05 08:12:48;;;;;;;11.20;2.10;;;13.80;99.90;;;;;;5086826;28;20396;-73
2021/11/05 08:15:15;;;;;;;8.10;1.70;;;14.10;99.90;;;;;;5102900;28;20434;-73
2021/11/05 08:17:42;;;;;;;11.90;2.30;;;14.50;98.90;;;;;;5104094;28;20400;-71
2021/11/05 08:20:08;;;;;;;8.57;1.90;;;14.60;97.90;;;;;;5081684;28;20436;-73
2021/11/05 08:22:34;;;;;;;10.88;1.50;;;14.60;97.80;;;;;;5101757;28;20920;-75
2021/11/05 08:24:59;;;;;;;8.57;2.05;;;15.40;97.20;;;;;;5097103;28;20418;-73
2021/11/05 08:27:26;;;;;;;12.40;3.03;;;16.60;94.80;;;;;;5093561;28;20417;-74
2021/11/05 08:29:52;;;;;;;11.50;1.35;;;17.90;92.10;;;;;;5080593;28;20451;-72
2021/11/05 08:32:18;;;;;;;9.63;1.30;;;19.10;87.70;;;;;;5081065;28;20422;-74
2021/11/05 08:34:44;;;;;;;8.45;1.58;;;20.20;81.90;;;;;;5080624;28;20416;-72
2021/11/05 08:37:10;;;;;;;6.35;1.08;;;20.90;76.30;;;;;;5096664;28;20546;-70
2021/11/05 08:39:36;;;;;;;7.68;1.13;;;20.70;74.60;;;;;;5083794;28;20448;-73
2021/11/05 08:42:03;;;;;;;6.57;1.00;;;20.00;76.00;;;;;;5099084;28;20443;-75
2021/11/05 08:44:30;;;;;;;4.78;0.80;;;19.20;79.10;;;;;;5086115;28;20466;-73
2021/11/05 08:46:56;;;;;;;5.03;1.00;;;18.40;83.50;;;;;;5098134;28;20423;-72
2021/11/05 08:49:24;;;;;;;7.43;1.10;;;17.60;87.40;;;;;;5082785;28;20410;-72
2021/11/05 08:51:49;;;;;;;7.78;1.00;;;16.90;90.30;;;;;;5098705;28;20417;-72
2021/11/05 08:54:15;;;;;;;5.32;1.13;;;16.40;92.10;;;;;;5080313;28;20750;-74
2021/11/05 08:56:42;;;;;;;7.72;1.05;;;15.90;93.50;;;;;;5077336;28;20406;-72
2021/11/05 08:59:08;;;;;;;7.63;1.50;;;15.50;94.70;;;;;;5084597;28;20427;-72
2021/11/05 09:01:33;;;;;;;7.23;1.30;;;15.10;95.80;;;;;;5085996;28;20412;-73
2021/11/05 09:03:59;;;;;;;7.82;1.67;;;14.80;96.70;;;;;;5098790;28;21055;-73
2021/11/05 09:06:26;;;;;;;9.68;2.15;;;14.50;97.60;;;;;;5085089;28;20479;-72
2021/11/05 09:08:53;;;;;;;11.68;1.55;;;14.30;98.40;;;;;;5097128;28;20446;-71
2021/11/05 09:11:19;;;;;;;9.10;1.55;;;14.10;99.00;;;;;;5096019;28;20411;-71
2021/11/05 09:13:45;;;;;;;9.37;1.80;;;14.20;99.90;;;;;;5077603;28;20926;-72
2021/11/05 09:16:11;;;;;;;6.93;1.30;;;15.50;99.90;;;;;;5093191;28;20419;-73
2021/11/05 09:18:37;;;;;;;5.65;1.20;;;17.70;97.40;;;;;;5100366;28;20820;-75
2021/11/05 09:21:04;;;;;;;6.43;1.30;;;19.90;92.10;;;;;;5095234;28;20405;-73
2021/11/05 09:23:30;;;;;;;8.27;1.20;;;21.90;82.80;;;;;;5079716;28;20427;-74
2021/11/05 09:25:56;;;;;;;8.05;1.25;;;23.40;73.10;;;;;;5097871;28;20420;-75
2021/11/05 09:28:23;;;;;;;7.22;1.30;;;24.60;65.00;;;;;;5083869;28;20412;-76
2021/11/05 09:30:49;;;;;;;5.63;0.90;;;24.50;61.30;;;;;;5097821;28;20196;-75
2021/11/05 09:33:17;;;;;;;;;;;22.80;68.10;;;;;;5104805;28;20031;-74
2021/11/05 09:35:43;;;;;;;;;;;21.20;72.80;;;;;;5099051;28;19923;-73
2021/11/05 09:38:08;;;;;;;;;;;19.80;77.10;;;;;;5075384;28;19915;-72
2021/11/05 09:40:34;;;;;;;;;;;18.70;81.40;;;;;;5103259;28;19925;-72
2021/11/05 09:43:00;;;;;;;;;;;17.80;84.50;;;;;;5101739;28;19915;-71
2021/11/05 09:45:30;;;;;;;3.67;0.73;;;17.10;87.30;;;;;;5101051;28;20252;-71
2021/11/05 09:47:58;;;;;;;10.02;1.30;;;16.50;90.60;;;;;;5101677;28;20477;-75
2021/11/05 09:50:23;;;;;;;6.30;1.30;;;16.80;91.70;;;;;;5100463;28;20498;-73
2021/11/05 09:52:49;;;;;;;11.45;1.60;;;16.80;92.20;;;;;;5100732;28;20439;-74
2021/11/05 09:55:17;;;;;;;10.18;1.98;;;16.70;92.50;;;;;;5100872;28;20504;-74
2021/11/05 09:57:43;;;;;;;14.20;2.47;;;16.80;92.90;;;;;;5101217;28;20423;-74
2021/11/05 10:00:11;;;;;;;12.25;2.50;;;16.80;92.60;;;;;;5099597;28;20423;-75
2021/11/05 10:02:43;;;;;;;10.50;2.50;;;16.70;92.50;;;;;;5095416;28;20499;-74
2021/11/05 10:05:11;;;;;;;10.88;2.08;;;16.70;93.50;;;;;;5103164;28;20416;-72
2021/11/05 10:07:48;;;;;;;10.13;2.55;;;17.30;92.70;;;;;;5099975;28;20443;-74
2021/11/05 10:10:15;;;;;;;9.23;1.58;;;17.90;90.60;;;;;;5093309;28;20457;-73
2021/11/05 10:12:56;;;;;;;14.38;1.55;;;17.90;89.60;;;;;;5097791;28;20410;-74
2021/11/05 10:15:27;;;;;;;8.63;1.30;;;17.60;90.00;;;;;;5101329;28;20416;-74
2021/11/05 10:18:04;;;;;;;8.10;1.10;;;17.30;90.90;;;;;;5098562;28;20408;-74
2021/11/05 10:20:29;;;;;;;6.72;1.27;;;17.10;91.20;;;;;;5095238;28;20408;-73
2021/11/05 10:23:00;;;;;;;10.03;1.10;;;17.10;91.30;;;;;;5084564;28;20400;-72
2021/11/05 10:25:39;;;;;;;4.88;0.80;;;17.10;91.00;;;;;;5099398;28;20732;-76
2021/11/05 10:28:17;;;;;;;5.30;0.95;;;17.10;90.60;;;;;;5098069;28;20433;-75
2021/11/05 10:30:42;;;;;;;5.77;1.13;;;17.00;90.70;;;;;;5102875;28;20768;-72
2021/11/05 10:33:10;;;;;;;6.03;1.10;;;17.00;90.50;;;;;;5099419;28;20403;-74
2021/11/05 10:35:40;;;;;;;5.93;1.00;;;17.00;90.20;;;;;;5080655;28;20458;-73
2021/11/05 10:38:09;;;;;;;7.38;1.10;;;17.00;89.50;;;;;;5102690;28;20420;-72
2021/11/05 10:40:43;;;;;;;5.88;1.20;;;17.10;89.70;;;;;;5083331;28;20396;-71
2021/11/05 10:43:17;;;;;;;7.55;1.42;;;17.20;88.80;;;;;;5073925;28;20420;-74
2021/11/05 10:45:43;;;;;;;8.23;1.27;;;17.40;88.70;;;;;;5098207;28;20416;-73
2021/11/05 10:48:15;;;;;;;9.35;1.20;;;17.60;88.60;;;;;;5089689;28;20420;-75
2021/11/05 10:50:53;;;;;;;8.10;1.20;;;18.00;88.00;;;;;;5078324;28;20422;-73
2021/11/05 10:53:23;;;;;;;8.32;1.30;;;18.50;86.00;;;;;;5102446;28;20836;-72
2021/11/05 10:55:51;;;;;;;7.90;1.17;;;19.10;83.40;;;;;;5096904;28;20410;-73
2021/11/05 10:58:29;;;;;;;7.70;1.77;;;20.20;78.40;;;;;;5099335;28;20853;-76
2021/11/05 11:01:01;;;;;;;9.10;1.42;;;21.40;71.40;;;;;;5083208;28;20760;-75
2021/11/05 11:03:49;;;;;;;6.85;1.20;;;22.10;64.60;;;;;;5102594;28;20450;-74
2021/11/05 11:06:18;;;;;;;6.25;1.15;;;22.20;64.20;;;;;;5054146;28;20776;-74
2021/11/05 11:09:03;;;;;;;6.70;1.30;;;22.00;63.50;;;;;;5101590;28;20410;-73
2021/11/05 11:11:35;;;;;;;8.43;1.23;;;21.50;64.00;;;;;;5106552;28;20412;-72
2021/11/05 11:14:04;;;;;;;7.57;1.30;;;21.10;66.70;;;;;;5106197;28;20881;-74
2021/11/05 11:16:33;;;;;;;6.25;1.00;;;20.80;68.80;;;;;;5100733;28;20414;-72
2021/11/05 11:19:02;;;;;;;8.00;1.13;;;20.60;68.90;;;;;;5102350;28;20407;-72
2021/11/05 11:21:34;;;;;;;6.95;0.90;;;20.20;70.20;;;;;;5103804;28;20745;-73
2021/11/05 11:24:02;;;;;;;6.93;1.10;;;19.90;70.50;;;;;;5101559;28;20729;-76
2021/11/05 11:26:32;;;;;;;7.32;1.10;;;19.70;72.00;;;;;;5084976;28;20404;-74
2021/11/05 11:28:58;;;;;;;6.82;0.95;;;19.80;72.30;;;;;;5101552;28;20487;-73
2021/11/05 11:31:23;;;;;;;6.15;1.00;;;20.50;70.50;;;;;;5102430;28;20519;-72
2021/11/05 11:33:53;;;;;;;10.02;1.90;;;21.30;67.10;;;;;;5100141;28;20480;-74
2021/11/05 11:36:20;;;;;;;4.63;1.08;;;22.00;63.90;;;;;;5100977;28;20945;-74
2021/11/05 11:38:52;;;;;;;7.22;1.33;;;22.50;61.80;;;;;;5099324;28;20473;-72
2021/11/05 11:41:19;;;;;;;5.30;1.00;;;22.80;61.70;;;;;;5104772;28;20407;-73
2021/11/05 11:43:45;;;;;;;6.50;1.00;;;23.20;57.30;;;;;;5102955;28;20423;-74
2021/11/05 11:46:11;;;;;;;5.03;1.08;;;23.30;55.90;;;;;;5063670;28;20406;-74
2021/11/05 11:48:38;;;;;;;6.63;1.00;;;23.50;56.60;;;;;;5099097;28;20487;-73
2021/11/05 11:51:16;;;;;;;7.22;1.25;;;23.70;55.60;;;;;;5097345;28;20495;-75
2021/11/05 11:53:42;;;;;;;8.35;1.10;;;23.70;54.30;;;;;;5104748;28;20412;-75
2021/11/05 11:56:07;;;;;;;7.85;1.00;;;23.40;54.70;;;;;;5102515;28;20461;-73
2021/11/05 11:58:33;;;;;;;6.73;1.13;;;23.20;55.30;;;;;;5103496;28;20512;-74
2021/11/05 12:01:20;;;;;;;9.67;1.20;;;22.90;55.70;;;;;;5103283;28;20436;-74
2021/11/05 12:04:14;;;;;;;5.15;1.00;;;22.40;55.90;;;;;;5098247;28;20491;-72
2021/11/05 12:06:46;;;;;;;7.40;1.30;;;21.80;57.60;;;;;;5076177;28;20502;-73
2021/11/05 12:09:23;;;;;;;5.90;0.90;;;21.30;59.10;;;;;;5095973;28;20519;-73
2021/11/05 12:11:49;;;;;;;6.40;1.08;;;20.80;60.80;;;;;;5098568;28;20200;-73
2021/11/05 12:14:15;;;;;;;4.75;0.75;;;20.00;63.60;;;;;;5103515;28;20189;-74
2021/11/05 12:16:58;;;;;;;7.25;1.25;;;19.60;66.20;;;;;;5106463;28;20189;-74
2021/11/05 12:19:32;;;;;;;;;;;19.60;68.00;;;;;;5106615;28;20031;-72
2021/11/05 12:22:16;;;;;;;;;;;19.60;68.00;;;;;;5095667;28;19912;-74
2021/11/05 12:24:43;;;;;;;;;;;19.80;69.10;;;;;;5082429;28;19912;-75
2021/11/05 12:27:08;;;;;;;;;;;20.00;70.10;;;;;;5101690;28;19915;-74
2021/11/05 12:29:34;;;;;;;;;;;20.20;70.70;;;;;;5087107;28;19973;-75
2021/11/05 12:32:22;;;;;;;;;;;20.30;71.00;;;;;;5087203;28;19937;-75
2021/11/05 12:34:52;;;;;;;;;;;20.40;71.00;;;;;;5107660;28;19911;-74
2021/11/05 12:37:32;;;;;;;;;;;20.20;70.90;;;;;;5094877;28;20574;-74
2021/11/05 12:40:17;;;;;;;;;;;20.00;72.00;;;;;;5093906;28;19923;-73
2021/11/05 12:42:42;;;;;;;;;;;19.60;72.30;;;;;;5101433;28;19923;-75